sensor_id;sensor_type;location;lat;lon;timestamp;temperature;humidity
33095;DHT22;19459;53.044;8.910;2023-08-31T00:02:18;12.70;99.90
33095;DHT22;19459;53.044;8.910;2023-08-31T00:04:44;12.70;99.90
33095;DHT22;19459;53.044;8.910;2023-08-31T00:07:10;12.60;99.90
33095;DHT22;19459;53.044;8.910;2023-08-31T00:09:36;12.70;99.90
33095;DHT22;19459;53.044;8.910;2023-08-31T00:12:02;12.60;99.90
33095;DHT22;19459;53.044;8.910;2023-08-31T00:14:29;12.60;99.90
33095;DHT22;19459;53.044;8.910;2023-08-31T00:16:54;12.50;99.90
33095;DHT22;19459;53.044;8.910;2023-08-31T00:19:23;12.40;99.90
33095;DHT22;19459;53.044;8.910;2023-08-31T00:21:48;12.50;99.90
33095;DHT22;19459;53.044;8.910;2023-08-31T00:24:14;12.40;99.90
33095;DHT22;19459;53.044;8.910;2023-08-31T00:26:40;12.50;99.90
33095;DHT22;19459;53.044;8.910;2023-08-31T00:29:09;12.40;99.90
33095;DHT22;19459;53.044;8.910;2023-08-31T00:31:37;12.40;99.90
33095;DHT22;19459;53.044;8.910;2023-08-31T00:34:03;12.30;99.90
33095;DHT22;19459;53.044;8.910;2023-08-31T00:36:33;12.30;99.90
33095;DHT22;19459;53.044;8.910;2023-08-31T00:39:03;12.30;99.90
33095;DHT22;19459;53.044;8.910;2023-08-31T00:41:35;12.20;99.90
33095;DHT22;19459;53.044;8.910;2023-08-31T00:44:02;12.10;99.90
33095;DHT22;19459;53.044;8.910;2023-08-31T00:46:33;12.10;99.90
33095;DHT22;19459;53.044;8.910;2023-08-31T00:49:00;12.20;99.90
33095;DHT22;19459;53.044;8.910;2023-08-31T00:51:26;12.10;99.90
33095;DHT22;19459;53.044;8.910;2023-08-31T00:53:52;12.00;99.90
33095;DHT22;19459;53.044;8.910;2023-08-31T00:56:24;12.10;99.90
33095;DHT22;19459;53.044;8.910;2023-08-31T00:58:50;12.10;99.90
33095;DHT22;19459;53.044;8.910;2023-08-31T01:07:26;11.90;99.90
33095;DHT22;19459;53.044;8.910;2023-08-31T01:13:20;12.00;99.90
33095;DHT22;19459;53.044;8.910;2023-08-31T01:15:52;11.90;99.90
33095;DHT22;19459;53.044;8.910;2023-08-31T01:18:22;11.90;99.90
33095;DHT22;19459;53.044;8.910;2023-08-31T01:24:04;11.90;99.90
33095;DHT22;19459;53.044;8.910;2023-08-31T01:26:32;11.90;99.90
33095;DHT22;19459;53.044;8.910;2023-08-31T01:28:58;11.90;99.90
33095;DHT22;19459;53.044;8.910;2023-08-31T01:31:24;11.90;99.90
33095;DHT22;19459;53.044;8.910;2023-08-31T01:33:50;11.90;99.90
33095;DHT22;19459;53.044;8.910;2023-08-31T01:36:30;11.80;99.90
33095;DHT22;19459;53.044;8.910;2023-08-31T01:39:19;11.80;99.90
33095;DHT22;19459;53.044;8.910;2023-08-31T01:41:52;11.80;99.90
33095;DHT22;19459;53.044;8.910;2023-08-31T01:44:21;11.70;99.90
33095;DHT22;19459;53.044;8.910;2023-08-31T01:46:52;11.70;99.90
33095;DHT22;19459;53.044;8.910;2023-08-31T01:49:21;11.70;99.90
33095;DHT22;19459;53.044;8.910;2023-08-31T01:51:47;11.70;99.90
33095;DHT22;19459;53.044;8.910;2023-08-31T01:54:13;11.70;99.90
33095;DHT22;19459;53.044;8.910;2023-08-31T01:56:39;11.70;99.90
33095;DHT22;19459;53.044;8.910;2023-08-31T01:59:04;11.60;99.90
33095;DHT22;19459;53.044;8.910;2023-08-31T02:01:32;11.60;99.90
33095;DHT22;19459;53.044;8.910;2023-08-31T02:03:58;11.50;99.90
33095;DHT22;19459;53.044;8.910;2023-08-31T02:06:24;11.50;99.90
33095;DHT22;19459;53.044;8.910;2023-08-31T02:08:50;11.50;99.90
33095;DHT22;19459;53.044;8.910;2023-08-31T02:11:15;11.50;99.90
33095;DHT22;19459;53.044;8.910;2023-08-31T02:13:42;11.50;99.90
33095;DHT22;19459;53.044;8.910;2023-08-31T02:16:07;11.50;99.90
33095;DHT22;19459;53.044;8.910;2023-08-31T02:18:33;11.50;99.90
33095;DHT22;19459;53.044;8.910;2023-08-31T02:20:59;11.50;99.90
33095;DHT22;19459;53.044;8.910;2023-08-31T02:23:25;11.40;99.90
33095;DHT22;19459;53.044;8.910;2023-08-31T02:25:50;11.40;99.90
33095;DHT22;19459;53.044;8.910;2023-08-31T02:28:16;11.40;99.90
33095;DHT22;19459;53.044;8.910;2023-08-31T02:30:44;11.40;99.90
33095;DHT22;19459;53.044;8.910;2023-08-31T02:33:10;11.40;99.90
33095;DHT22;19459;53.044;8.910;2023-08-31T02:35:36;11.40;99.90
33095;DHT22;19459;53.044;8.910;2023-08-31T02:38:02;11.40;99.90
33095;DHT22;19459;53.044;8.910;2023-08-31T02:40:28;11.30;99.90
33095;DHT22;19459;53.044;8.910;2023-08-31T02:42:53;11.30;99.90
33095;DHT22;19459;53.044;8.910;2023-08-31T02:45:19;11.30;99.90
33095;DHT22;19459;53.044;8.910;2023-08-31T02:47:45;11.30;99.90
33095;DHT22;19459;53.044;8.910;2023-08-31T02:50:11;11.30;99.90
33095;DHT22;19459;53.044;8.910;2023-08-31T02:52:37;11.30;99.90
33095;DHT22;19459;53.044;8.910;2023-08-31T02:55:03;11.30;99.90
33095;DHT22;19459;53.044;8.910;2023-08-31T02:57:29;11.30;99.90
33095;DHT22;19459;53.044;8.910;2023-08-31T02:59:56;11.30;99.90
33095;DHT22;19459;53.044;8.910;2023-08-31T03:02:21;11.30;99.90
33095;DHT22;19459;53.044;8.910;2023-08-31T03:04:47;11.30;99.90
33095;DHT22;19459;53.044;8.910;2023-08-31T03:07:13;11.30;99.90
33095;DHT22;19459;53.044;8.910;2023-08-31T03:09:40;11.30;99.90
33095;DHT22;19459;53.044;8.910;2023-08-31T03:12:06;11.30;99.90
33095;DHT22;19459;53.044;8.910;2023-08-31T03:14:32;11.30;99.90
33095;DHT22;19459;53.044;8.910;2023-08-31T03:16:58;11.30;99.90
33095;DHT22;19459;53.044;8.910;2023-08-31T03:19:24;11.30;99.90
33095;DHT22;19459;53.044;8.910;2023-08-31T03:21:50;11.30;99.90
33095;DHT22;19459;53.044;8.910;2023-08-31T03:24:16;11.20;99.90
33095;DHT22;19459;53.044;8.910;2023-08-31T03:26:41;11.20;99.90
33095;DHT22;19459;53.044;8.910;2023-08-31T03:29:07;11.20;99.90
33095;DHT22;19459;53.044;8.910;2023-08-31T03:31:33;11.20;99.90
33095;DHT22;19459;53.044;8.910;2023-08-31T03:33:59;11.20;99.90
33095;DHT22;19459;53.044;8.910;2023-08-31T03:36:25;11.10;99.90
33095;DHT22;19459;53.044;8.910;2023-08-31T03:38:50;11.10;99.90
33095;DHT22;19459;53.044;8.910;2023-08-31T03:41:16;11.10;99.90
33095;DHT22;19459;53.044;8.910;2023-08-31T03:43:42;11.10;99.90
33095;DHT22;19459;53.044;8.910;2023-08-31T03:46:08;11.10;99.90
33095;DHT22;19459;53.044;8.910;2023-08-31T03:48:33;11.10;99.90
33095;DHT22;19459;53.044;8.910;2023-08-31T03:50:59;11.10;99.90
33095;DHT22;19459;53.044;8.910;2023-08-31T03:53:25;11.10;99.90
33095;DHT22;19459;53.044;8.910;2023-08-31T03:55:51;11.20;99.90
33095;DHT22;19459;53.044;8.910;2023-08-31T03:58:16;11.20;99.90
33095;DHT22;19459;53.044;8.910;2023-08-31T04:00:42;11.20;99.90
33095;DHT22;19459;53.044;8.910;2023-08-31T04:03:09;11.10;99.90
33095;DHT22;19459;53.044;8.910;2023-08-31T04:05:35;11.10;99.90
33095;DHT22;19459;53.044;8.910;2023-08-31T04:08:01;11.10;99.90
33095;DHT22;19459;53.044;8.910;2023-08-31T04:10:28;11.20;99.90
33095;DHT22;19459;53.044;8.910;2023-08-31T04:12:55;11.20;99.90
33095;DHT22;19459;53.044;8.910;2023-08-31T04:15:21;11.20;99.90
33095;DHT22;19459;53.044;8.910;2023-08-31T04:17:47;11.20;99.90
33095;DHT22;19459;53.044;8.910;2023-08-31T04:20:15;11.20;99.90
33095;DHT22;19459;53.044;8.910;2023-08-31T04:22:41;11.30;99.90
33095;DHT22;19459;53.044;8.910;2023-08-31T04:25:07;11.20;99.90
33095;DHT22;19459;53.044;8.910;2023-08-31T04:27:32;11.20;99.90
33095;DHT22;19459;53.044;8.910;2023-08-31T04:30:00;11.20;99.90
33095;DHT22;19459;53.044;8.910;2023-08-31T04:32:26;11.20;99.90
33095;DHT22;19459;53.044;8.910;2023-08-31T04:34:52;11.20;99.90
33095;DHT22;19459;53.044;8.910;2023-08-31T04:37:18;11.20;99.90
33095;DHT22;19459;53.044;8.910;2023-08-31T04:39:44;11.20;99.90
33095;DHT22;19459;53.044;8.910;2023-08-31T04:42:10;11.20;99.90
33095;DHT22;19459;53.044;8.910;2023-08-31T04:44:36;11.20;99.90
33095;DHT22;19459;53.044;8.910;2023-08-31T04:47:02;11.20;99.90
33095;DHT22;19459;53.044;8.910;2023-08-31T04:49:27;11.10;99.90
33095;DHT22;19459;53.044;8.910;2023-08-31T04:51:53;11.20;99.90
33095;DHT22;19459;53.044;8.910;2023-08-31T04:54:19;11.20;99.90
33095;DHT22;19459;53.044;8.910;2023-08-31T04:56:45;11.10;99.90
33095;DHT22;19459;53.044;8.910;2023-08-31T04:59:10;11.10;99.90
33095;DHT22;19459;53.044;8.910;2023-08-31T05:01:36;11.10;99.90
33095;DHT22;19459;53.044;8.910;2023-08-31T05:04:02;11.10;99.90
33095;DHT22;19459;53.044;8.910;2023-08-31T05:06:28;11.10;99.90
33095;DHT22;19459;53.044;8.910;2023-08-31T05:08:54;11.20;99.90
33095;DHT22;19459;53.044;8.910;2023-08-31T05:11:20;11.20;99.90
33095;DHT22;19459;53.044;8.910;2023-08-31T05:13:47;11.20;99.90
33095;DHT22;19459;53.044;8.910;2023-08-31T05:16:13;11.30;99.90
33095;DHT22;19459;53.044;8.910;2023-08-31T05:18:39;11.30;99.90
33095;DHT22;19459;53.044;8.910;2023-08-31T05:21:06;11.40;99.90
33095;DHT22;19459;53.044;8.910;2023-08-31T05:23:32;11.40;99.90
33095;DHT22;19459;53.044;8.910;2023-08-31T05:25:58;11.50;99.90
33095;DHT22;19459;53.044;8.910;2023-08-31T05:28:24;11.50;99.90
33095;DHT22;19459;53.044;8.910;2023-08-31T05:30:51;11.60;99.90
33095;DHT22;19459;53.044;8.910;2023-08-31T05:33:18;11.60;99.90
33095;DHT22;19459;53.044;8.910;2023-08-31T05:35:44;11.60;99.90
33095;DHT22;19459;53.044;8.910;2023-08-31T05:38:11;11.70;99.90
33095;DHT22;19459;53.044;8.910;2023-08-31T05:40:37;11.70;99.90
33095;DHT22;19459;53.044;8.910;2023-08-31T05:43:04;11.70;99.90
33095;DHT22;19459;53.044;8.910;2023-08-31T05:45:33;11.80;99.90
33095;DHT22;19459;53.044;8.910;2023-08-31T05:47:59;11.90;99.90
33095;DHT22;19459;53.044;8.910;2023-08-31T05:50:26;11.90;99.90
33095;DHT22;19459;53.044;8.910;2023-08-31T05:52:53;11.90;99.90
33095;DHT22;19459;53.044;8.910;2023-08-31T05:55:20;12.00;99.90
33095;DHT22;19459;53.044;8.910;2023-08-31T05:57:46;12.00;99.90
33095;DHT22;19459;53.044;8.910;2023-08-31T06:00:12;12.00;99.90
33095;DHT22;19459;53.044;8.910;2023-08-31T06:02:38;12.10;99.90
33095;DHT22;19459;53.044;8.910;2023-08-31T06:05:04;12.10;99.90
33095;DHT22;19459;53.044;8.910;2023-08-31T06:07:31;12.20;99.90
33095;DHT22;19459;53.044;8.910;2023-08-31T06:09:57;12.20;99.90
33095;DHT22;19459;53.044;8.910;2023-08-31T06:12:23;12.20;99.90
33095;DHT22;19459;53.044;8.910;2023-08-31T06:14:49;12.20;99.90
33095;DHT22;19459;53.044;8.910;2023-08-31T06:17:14;12.30;99.90
33095;DHT22;19459;53.044;8.910;2023-08-31T06:19:41;12.30;99.90
33095;DHT22;19459;53.044;8.910;2023-08-31T06:22:08;12.40;99.90
33095;DHT22;19459;53.044;8.910;2023-08-31T06:24:34;12.40;99.90
33095;DHT22;19459;53.044;8.910;2023-08-31T06:27:00;12.30;99.90
33095;DHT22;19459;53.044;8.910;2023-08-31T06:29:26;12.40;99.90
33095;DHT22;19459;53.044;8.910;2023-08-31T06:31:52;12.30;99.90
33095;DHT22;19459;53.044;8.910;2023-08-31T06:34:18;12.40;99.90
33095;DHT22;19459;53.044;8.910;2023-08-31T06:36:43;12.40;99.90
33095;DHT22;19459;53.044;8.910;2023-08-31T06:39:09;12.40;99.90
33095;DHT22;19459;53.044;8.910;2023-08-31T06:41:35;12.40;99.90
33095;DHT22;19459;53.044;8.910;2023-08-31T06:44:02;12.40;99.90
33095;DHT22;19459;53.044;8.910;2023-08-31T06:46:29;12.50;99.90
33095;DHT22;19459;53.044;8.910;2023-08-31T06:48:59;12.60;99.90
33095;DHT22;19459;53.044;8.910;2023-08-31T06:51:25;12.70;99.90
33095;DHT22;19459;53.044;8.910;2023-08-31T06:53:51;12.80;99.90
33095;DHT22;19459;53.044;8.910;2023-08-31T06:56:16;12.90;99.90
33095;DHT22;19459;53.044;8.910;2023-08-31T06:58:42;12.90;99.90
33095;DHT22;19459;53.044;8.910;2023-08-31T07:01:08;12.90;99.90
33095;DHT22;19459;53.044;8.910;2023-08-31T07:03:34;13.00;99.90
33095;DHT22;19459;53.044;8.910;2023-08-31T07:06:00;13.10;99.90
33095;DHT22;19459;53.044;8.910;2023-08-31T07:08:26;13.00;99.90
33095;DHT22;19459;53.044;8.910;2023-08-31T07:10:52;12.90;99.90
33095;DHT22;19459;53.044;8.910;2023-08-31T07:13:17;12.90;99.90
33095;DHT22;19459;53.044;8.910;2023-08-31T07:15:43;12.90;99.90
33095;DHT22;19459;53.044;8.910;2023-08-31T07:18:09;12.90;99.90
33095;DHT22;19459;53.044;8.910;2023-08-31T07:20:35;12.90;99.90
33095;DHT22;19459;53.044;8.910;2023-08-31T07:23:00;12.90;99.90
33095;DHT22;19459;53.044;8.910;2023-08-31T07:25:26;13.00;99.90
33095;DHT22;19459;53.044;8.910;2023-08-31T07:27:53;13.00;99.90
33095;DHT22;19459;53.044;8.910;2023-08-31T07:30:19;12.90;99.90
33095;DHT22;19459;53.044;8.910;2023-08-31T07:32:44;13.00;99.90
33095;DHT22;19459;53.044;8.910;2023-08-31T07:35:10;12.90;99.90
33095;DHT22;19459;53.044;8.910;2023-08-31T07:37:36;12.90;99.90
33095;DHT22;19459;53.044;8.910;2023-08-31T07:40:03;12.90;99.90
33095;DHT22;19459;53.044;8.910;2023-08-31T07:42:34;12.90;99.90
33095;DHT22;19459;53.044;8.910;2023-08-31T07:45:00;12.90;99.90
33095;DHT22;19459;53.044;8.910;2023-08-31T07:47:26;13.00;99.90
33095;DHT22;19459;53.044;8.910;2023-08-31T07:49:51;13.00;99.90
33095;DHT22;19459;53.044;8.910;2023-08-31T07:52:17;13.00;99.90
33095;DHT22;19459;53.044;8.910;2023-08-31T07:54:43;13.00;99.90
33095;DHT22;19459;53.044;8.910;2023-08-31T07:57:09;13.00;99.90
33095;DHT22;19459;53.044;8.910;2023-08-31T07:59:34;13.00;99.90
33095;DHT22;19459;53.044;8.910;2023-08-31T08:02:00;13.10;99.90
33095;DHT22;19459;53.044;8.910;2023-08-31T08:04:26;13.20;99.90
33095;DHT22;19459;53.044;8.910;2023-08-31T08:06:52;13.30;99.90
33095;DHT22;19459;53.044;8.910;2023-08-31T08:09:18;13.40;99.90
33095;DHT22;19459;53.044;8.910;2023-08-31T08:11:44;13.60;99.90
33095;DHT22;19459;53.044;8.910;2023-08-31T08:14:10;13.70;99.90
33095;DHT22;19459;53.044;8.910;2023-08-31T08:16:36;13.80;99.90
33095;DHT22;19459;53.044;8.910;2023-08-31T08:19:02;13.90;99.90
33095;DHT22;19459;53.044;8.910;2023-08-31T08:21:28;13.80;99.90
33095;DHT22;19459;53.044;8.910;2023-08-31T08:23:53;13.80;99.90
33095;DHT22;19459;53.044;8.910;2023-08-31T08:26:19;13.70;99.90
33095;DHT22;19459;53.044;8.910;2023-08-31T08:28:45;13.70;99.90
33095;DHT22;19459;53.044;8.910;2023-08-31T08:31:11;13.70;99.90
33095;DHT22;19459;53.044;8.910;2023-08-31T08:33:40;13.70;99.90
33095;DHT22;19459;53.044;8.910;2023-08-31T08:36:05;13.70;99.90
33095;DHT22;19459;53.044;8.910;2023-08-31T08:38:31;13.80;99.90
33095;DHT22;19459;53.044;8.910;2023-08-31T08:40:57;13.80;99.90
33095;DHT22;19459;53.044;8.910;2023-08-31T08:43:26;13.80;99.90
33095;DHT22;19459;53.044;8.910;2023-08-31T08:45:54;13.80;99.90
33095;DHT22;19459;53.044;8.910;2023-08-31T08:48:20;13.80;99.90
33095;DHT22;19459;53.044;8.910;2023-08-31T08:50:46;13.70;99.90
33095;DHT22;19459;53.044;8.910;2023-08-31T08:53:13;13.70;99.90
33095;DHT22;19459;53.044;8.910;2023-08-31T08:55:41;13.80;99.90
33095;DHT22;19459;53.044;8.910;2023-08-31T08:58:07;13.90;99.90
33095;DHT22;19459;53.044;8.910;2023-08-31T09:00:33;13.90;99.90
33095;DHT22;19459;53.044;8.910;2023-08-31T09:03:00;14.00;99.90
33095;DHT22;19459;53.044;8.910;2023-08-31T09:05:34;13.90;99.90
33095;DHT22;19459;53.044;8.910;2023-08-31T09:10:39;14.00;99.90
33095;DHT22;19459;53.044;8.910;2023-08-31T09:13:15;14.00;99.90
33095;DHT22;19459;53.044;8.910;2023-08-31T09:15:48;14.20;99.90
33095;DHT22;19459;53.044;8.910;2023-08-31T09:18:26;14.30;99.90
33095;DHT22;19459;53.044;8.910;2023-08-31T09:20:57;14.50;99.90
33095;DHT22;19459;53.044;8.910;2023-08-31T09:23:23;14.50;99.90
33095;DHT22;19459;53.044;8.910;2023-08-31T09:25:54;14.60;99.90
33095;DHT22;19459;53.044;8.910;2023-08-31T09:28:31;14.60;99.90
33095;DHT22;19459;53.044;8.910;2023-08-31T09:31:07;14.70;99.90
33095;DHT22;19459;53.044;8.910;2023-08-31T09:33:35;14.70;99.90
33095;DHT22;19459;53.044;8.910;2023-08-31T09:36:06;14.70;99.90
33095;DHT22;19459;53.044;8.910;2023-08-31T09:38:44;14.70;99.90
33095;DHT22;19459;53.044;8.910;2023-08-31T09:41:10;14.90;99.90
33095;DHT22;19459;53.044;8.910;2023-08-31T09:43:39;15.20;99.90
33095;DHT22;19459;53.044;8.910;2023-08-31T09:46:05;15.60;99.90
33095;DHT22;19459;53.044;8.910;2023-08-31T09:48:31;16.00;99.90
33095;DHT22;19459;53.044;8.910;2023-08-31T09:50:57;16.40;99.90
33095;DHT22;19459;53.044;8.910;2023-08-31T09:53:29;16.70;99.90
33095;DHT22;19459;53.044;8.910;2023-08-31T09:55:56;16.90;99.90
33095;DHT22;19459;53.044;8.910;2023-08-31T09:58:22;17.30;99.90
33095;DHT22;19459;53.044;8.910;2023-08-31T10:00:50;17.60;99.90
33095;DHT22;19459;53.044;8.910;2023-08-31T10:03:17;18.00;99.90
33095;DHT22;19459;53.044;8.910;2023-08-31T10:05:43;18.20;99.90
33095;DHT22;19459;53.044;8.910;2023-08-31T10:08:11;18.40;99.90
33095;DHT22;19459;53.044;8.910;2023-08-31T10:10:38;17.70;99.90
33095;DHT22;19459;53.044;8.910;2023-08-31T10:13:05;17.50;99.90
33095;DHT22;19459;53.044;8.910;2023-08-31T10:15:32;17.80;99.90
33095;DHT22;19459;53.044;8.910;2023-08-31T10:18:00;18.00;99.90
33095;DHT22;19459;53.044;8.910;2023-08-31T10:20:27;18.40;99.90
33095;DHT22;19459;53.044;8.910;2023-08-31T10:23:06;18.70;99.90
33095;DHT22;19459;53.044;8.910;2023-08-31T10:28:26;18.80;99.90
33095;DHT22;19459;53.044;8.910;2023-08-31T10:31:07;18.60;99.90
33095;DHT22;19459;53.044;8.910;2023-08-31T10:33:44;18.50;99.90
33095;DHT22;19459;53.044;8.910;2023-08-31T10:36:13;18.60;99.90
33095;DHT22;19459;53.044;8.910;2023-08-31T10:38:44;19.10;99.90
33095;DHT22;19459;53.044;8.910;2023-08-31T10:43:53;19.80;99.90
33095;DHT22;19459;53.044;8.910;2023-08-31T10:46:31;20.40;99.90
33095;DHT22;19459;53.044;8.910;2023-08-31T10:49:13;21.00;99.90
33095;DHT22;19459;53.044;8.910;2023-08-31T10:54:55;20.60;99.90
33095;DHT22;19459;53.044;8.910;2023-08-31T10:57:30;19.90;99.90
33095;DHT22;19459;53.044;8.910;2023-08-31T10:59:59;19.90;99.90
33095;DHT22;19459;53.044;8.910;2023-08-31T11:07:41;19.40;99.90
33095;DHT22;19459;53.044;8.910;2023-08-31T11:10:18;18.90;99.90
33095;DHT22;19459;53.044;8.910;2023-08-31T11:12:47;18.30;99.90
33095;DHT22;19459;53.044;8.910;2023-08-31T11:15:15;17.70;99.90
33095;DHT22;19459;53.044;8.910;2023-08-31T11:17:43;17.80;99.90
33095;DHT22;19459;53.044;8.910;2023-08-31T11:20:14;18.10;99.90
33095;DHT22;19459;53.044;8.910;2023-08-31T11:22:43;18.20;99.90
33095;DHT22;19459;53.044;8.910;2023-08-31T11:25:16;18.20;99.90
33095;DHT22;19459;53.044;8.910;2023-08-31T11:27:42;18.10;99.90
33095;DHT22;19459;53.044;8.910;2023-08-31T11:30:18;17.80;99.90
33095;DHT22;19459;53.044;8.910;2023-08-31T11:32:51;17.90;99.90
33095;DHT22;19459;53.044;8.910;2023-08-31T11:35:19;18.30;99.90
33095;DHT22;19459;53.044;8.910;2023-08-31T11:37:50;18.20;99.90
33095;DHT22;19459;53.044;8.910;2023-08-31T11:40:17;17.90;99.90
33095;DHT22;19459;53.044;8.910;2023-08-31T11:42:43;17.60;99.90
33095;DHT22;19459;53.044;8.910;2023-08-31T11:45:10;17.70;99.90
33095;DHT22;19459;53.044;8.910;2023-08-31T11:47:38;17.50;99.90
33095;DHT22;19459;53.044;8.910;2023-08-31T11:50:05;17.70;99.90
33095;DHT22;19459;53.044;8.910;2023-08-31T11:52:32;17.50;99.90
33095;DHT22;19459;53.044;8.910;2023-08-31T11:54:59;17.20;99.90
33095;DHT22;19459;53.044;8.910;2023-08-31T11:57:26;17.00;99.90
33095;DHT22;19459;53.044;8.910;2023-08-31T11:59:52;16.80;99.90
33095;DHT22;19459;53.044;8.910;2023-08-31T12:02:19;16.70;99.90
33095;DHT22;19459;53.044;8.910;2023-08-31T12:04:46;16.70;99.90
33095;DHT22;19459;53.044;8.910;2023-08-31T12:07:17;16.70;99.90
33095;DHT22;19459;53.044;8.910;2023-08-31T12:09:46;16.70;99.90
33095;DHT22;19459;53.044;8.910;2023-08-31T12:12:19;16.50;99.90
33095;DHT22;19459;53.044;8.910;2023-08-31T12:14:46;16.30;99.90
33095;DHT22;19459;53.044;8.910;2023-08-31T12:17:11;16.00;99.90
33095;DHT22;19459;53.044;8.910;2023-08-31T12:19:38;15.70;99.90
33095;DHT22;19459;53.044;8.910;2023-08-31T12:22:07;15.60;99.90
33095;DHT22;19459;53.044;8.910;2023-08-31T12:24:47;15.40;99.90
33095;DHT22;19459;53.044;8.910;2023-08-31T12:27:15;15.20;99.90
33095;DHT22;19459;53.044;8.910;2023-08-31T12:29:41;15.10;99.90
33095;DHT22;19459;53.044;8.910;2023-08-31T12:32:07;15.00;99.90
33095;DHT22;19459;53.044;8.910;2023-08-31T12:34:33;15.00;99.90
33095;DHT22;19459;53.044;8.910;2023-08-31T12:36:59;14.90;99.90
33095;DHT22;19459;53.044;8.910;2023-08-31T12:39:26;14.80;99.90
33095;DHT22;19459;53.044;8.910;2023-08-31T12:41:52;14.90;99.90
33095;DHT22;19459;53.044;8.910;2023-08-31T12:44:18;15.00;99.90
33095;DHT22;19459;53.044;8.910;2023-08-31T12:46:44;15.00;99.90
33095;DHT22;19459;53.044;8.910;2023-08-31T12:49:09;15.00;99.90
33095;DHT22;19459;53.044;8.910;2023-08-31T12:51:36;14.90;99.90
33095;DHT22;19459;53.044;8.910;2023-08-31T12:54:02;14.60;99.90
33095;DHT22;19459;53.044;8.910;2023-08-31T12:56:29;14.40;99.90
33095;DHT22;19459;53.044;8.910;2023-08-31T12:58:55;14.30;99.90
33095;DHT22;19459;53.044;8.910;2023-08-31T13:01:26;14.20;99.90
33095;DHT22;19459;53.044;8.910;2023-08-31T13:03:52;14.30;99.90
33095;DHT22;19459;53.044;8.910;2023-08-31T13:06:18;14.50;99.90
33095;DHT22;19459;53.044;8.910;2023-08-31T13:08:44;14.40;99.90
33095;DHT22;19459;53.044;8.910;2023-08-31T13:11:11;14.50;99.90
33095;DHT22;19459;53.044;8.910;2023-08-31T13:13:38;14.60;99.90
33095;DHT22;19459;53.044;8.910;2023-08-31T13:16:04;14.90;99.90
33095;DHT22;19459;53.044;8.910;2023-08-31T13:18:30;15.00;99.90
33095;DHT22;19459;53.044;8.910;2023-08-31T13:20:56;15.40;99.90
33095;DHT22;19459;53.044;8.910;2023-08-31T13:23:22;15.90;99.90
33095;DHT22;19459;53.044;8.910;2023-08-31T13:25:49;16.30;99.90
33095;DHT22;19459;53.044;8.910;2023-08-31T13:28:16;16.70;99.90
33095;DHT22;19459;53.044;8.910;2023-08-31T13:30:41;17.50;99.90
33095;DHT22;19459;53.044;8.910;2023-08-31T13:33:08;18.00;99.90
33095;DHT22;19459;53.044;8.910;2023-08-31T13:35:35;18.40;99.90
33095;DHT22;19459;53.044;8.910;2023-08-31T13:38:01;18.20;99.90
33095;DHT22;19459;53.044;8.910;2023-08-31T13:40:28;18.20;99.90
33095;DHT22;19459;53.044;8.910;2023-08-31T13:42:59;18.50;99.90
33095;DHT22;19459;53.044;8.910;2023-08-31T13:45:27;18.90;99.90
33095;DHT22;19459;53.044;8.910;2023-08-31T13:47:53;18.90;99.90
33095;DHT22;19459;53.044;8.910;2023-08-31T13:50:19;18.50;99.90
33095;DHT22;19459;53.044;8.910;2023-08-31T13:52:45;18.20;99.90
33095;DHT22;19459;53.044;8.910;2023-08-31T13:55:11;18.30;99.90
33095;DHT22;19459;53.044;8.910;2023-08-31T13:57:38;18.20;99.90
33095;DHT22;19459;53.044;8.910;2023-08-31T14:00:07;18.00;99.90
33095;DHT22;19459;53.044;8.910;2023-08-31T14:02:37;17.50;99.90
33095;DHT22;19459;53.044;8.910;2023-08-31T14:05:06;17.50;99.90
33095;DHT22;19459;53.044;8.910;2023-08-31T14:07:33;17.40;99.90
33095;DHT22;19459;53.044;8.910;2023-08-31T14:09:59;17.30;99.90
33095;DHT22;19459;53.044;8.910;2023-08-31T14:12:25;17.20;99.90
33095;DHT22;19459;53.044;8.910;2023-08-31T14:14:51;17.20;99.90
33095;DHT22;19459;53.044;8.910;2023-08-31T14:17:18;16.80;99.90
33095;DHT22;19459;53.044;8.910;2023-08-31T14:19:44;16.70;99.90
33095;DHT22;19459;53.044;8.910;2023-08-31T14:22:10;16.60;99.90
33095;DHT22;19459;53.044;8.910;2023-08-31T14:24:36;16.50;99.90
33095;DHT22;19459;53.044;8.910;2023-08-31T14:27:03;16.30;99.90
33095;DHT22;19459;53.044;8.910;2023-08-31T14:29:33;16.40;99.90
33095;DHT22;19459;53.044;8.910;2023-08-31T14:32:00;16.30;99.90
33095;DHT22;19459;53.044;8.910;2023-08-31T14:34:26;16.00;99.90
33095;DHT22;19459;53.044;8.910;2023-08-31T14:36:52;15.80;99.90
33095;DHT22;19459;53.044;8.910;2023-08-31T14:39:19;15.80;99.90
33095;DHT22;19459;53.044;8.910;2023-08-31T14:41:45;15.70;99.90
33095;DHT22;19459;53.044;8.910;2023-08-31T14:44:10;15.90;99.90
33095;DHT22;19459;53.044;8.910;2023-08-31T14:46:36;16.20;99.90
33095;DHT22;19459;53.044;8.910;2023-08-31T14:49:02;16.10;99.90
33095;DHT22;19459;53.044;8.910;2023-08-31T14:51:29;16.00;99.90
33095;DHT22;19459;53.044;8.910;2023-08-31T14:53:55;16.00;99.90
33095;DHT22;19459;53.044;8.910;2023-08-31T14:56:21;15.70;99.90
33095;DHT22;19459;53.044;8.910;2023-08-31T14:58:46;15.80;99.90
33095;DHT22;19459;53.044;8.910;2023-08-31T15:01:12;15.60;99.90
33095;DHT22;19459;53.044;8.910;2023-08-31T15:03:38;15.40;99.90
33095;DHT22;19459;53.044;8.910;2023-08-31T15:06:03;15.20;99.90
33095;DHT22;19459;53.044;8.910;2023-08-31T15:08:37;15.20;99.90
33095;DHT22;19459;53.044;8.910;2023-08-31T15:11:03;15.50;99.90
33095;DHT22;19459;53.044;8.910;2023-08-31T15:13:29;15.70;99.90
33095;DHT22;19459;53.044;8.910;2023-08-31T15:15:55;16.00;99.90
33095;DHT22;19459;53.044;8.910;2023-08-31T15:18:21;16.30;99.90
33095;DHT22;19459;53.044;8.910;2023-08-31T15:20:47;16.70;99.90
33095;DHT22;19459;53.044;8.910;2023-08-31T15:23:13;17.00;99.90
33095;DHT22;19459;53.044;8.910;2023-08-31T15:25:39;17.30;99.90
33095;DHT22;19459;53.044;8.910;2023-08-31T15:28:05;17.50;99.90
33095;DHT22;19459;53.044;8.910;2023-08-31T15:30:31;17.50;99.90
33095;DHT22;19459;53.044;8.910;2023-08-31T15:33:03;17.30;99.90
33095;DHT22;19459;53.044;8.910;2023-08-31T15:35:30;17.00;99.90
33095;DHT22;19459;53.044;8.910;2023-08-31T15:37:58;17.10;99.90
33095;DHT22;19459;53.044;8.910;2023-08-31T15:40:25;17.20;99.90
33095;DHT22;19459;53.044;8.910;2023-08-31T15:42:51;17.20;99.90
33095;DHT22;19459;53.044;8.910;2023-08-31T15:45:16;16.90;99.90
33095;DHT22;19459;53.044;8.910;2023-08-31T15:47:42;16.90;99.90
33095;DHT22;19459;53.044;8.910;2023-08-31T15:50:08;16.90;99.90
33095;DHT22;19459;53.044;8.910;2023-08-31T15:52:34;17.00;99.90
33095;DHT22;19459;53.044;8.910;2023-08-31T15:55:03;17.10;99.90
33095;DHT22;19459;53.044;8.910;2023-08-31T15:57:31;17.10;99.90
33095;DHT22;19459;53.044;8.910;2023-08-31T16:00:00;17.10;99.90